createdAt,value
2022-10-14T00:01:07.441Z,9.27
2022-10-14T00:03:35.495Z,8.23
2022-10-14T00:06:14.240Z,7.72
2022-10-14T00:08:41.956Z,9.48
2022-10-14T00:11:17.258Z,10.75
2022-10-14T00:13:44.813Z,10.95
2022-10-14T00:16:18.728Z,8.52
2022-10-14T00:18:45.665Z,10.80
2022-10-14T00:21:12.371Z,8.68
2022-10-14T00:23:39.239Z,11.32
2022-10-14T00:26:06.250Z,9.85
2022-10-14T00:28:35.242Z,10.35
2022-10-14T00:31:02.710Z,10.63
2022-10-14T00:33:29.691Z,10.35
2022-10-14T00:36:06.508Z,18.23
2022-10-14T00:38:37.466Z,19.77
2022-10-14T00:41:04.713Z,18.95
2022-10-14T00:43:52.038Z,16.42
2022-10-14T00:46:18.711Z,15.10
2022-10-14T00:48:45.476Z,14.25
2022-10-14T00:51:13.133Z,8.52
2022-10-14T00:53:43.495Z,10.63
2022-10-14T00:56:12.706Z,11.00
2022-10-14T00:58:39.770Z,9.48
2022-10-14T01:01:08.060Z,8.23
2022-10-14T01:03:35.031Z,11.75
2022-10-14T01:06:20.740Z,23.85
2022-10-14T01:08:53.444Z,18.33
2022-10-14T01:11:47.496Z,19.98
2022-10-14T01:14:49.228Z,21.75
2022-10-14T01:17:23.305Z,23.27
2022-10-14T01:20:18.639Z,16.63
2022-10-14T01:23:08.593Z,20.25
2022-10-14T01:25:37.470Z,14.13
2022-10-14T01:28:20.623Z,12.73
2022-10-14T01:31:10.855Z,9.70
2022-10-14T01:33:41.984Z,13.77
2022-10-14T01:36:17.225Z,8.27
2022-10-14T01:38:55.919Z,8.48
2022-10-14T01:41:37.881Z,8.73
2022-10-14T01:44:10.131Z,8.40
2022-10-14T01:46:43.298Z,8.75
2022-10-14T01:49:15.732Z,6.95
2022-10-14T01:51:56.303Z,7.60
2022-10-14T01:54:45.130Z,8.60
2022-10-14T01:57:17.082Z,8.95
2022-10-14T01:59:44.837Z,9.30
2022-10-14T02:02:13.398Z,9.82
2022-10-14T02:04:41.307Z,9.85
2022-10-14T02:07:25.948Z,10.93
2022-10-14T02:10:23.751Z,10.38
2022-10-14T02:12:50.623Z,9.52
2022-10-14T02:15:30.648Z,11.88
2022-10-14T02:18:06.816Z,10.00
2022-10-14T02:20:53.547Z,8.55
2022-10-14T02:23:28.034Z,8.80
2022-10-14T02:25:56.572Z,8.27
2022-10-14T02:28:27.732Z,8.48
2022-10-14T02:30:59.087Z,12.65
2022-10-14T02:33:33.234Z,6.18
2022-10-14T02:36:03.685Z,8.00
2022-10-14T02:38:31.954Z,9.55
2022-10-14T02:41:01.674Z,11.93
2022-10-14T02:43:28.498Z,9.40
2022-10-14T02:46:02.211Z,10.82
2022-10-14T02:48:29.102Z,10.25
2022-10-14T02:50:55.802Z,9.55
2022-10-14T02:53:22.479Z,9.75
2022-10-14T02:55:49.174Z,9.75
2022-10-14T02:58:15.978Z,9.38
2022-10-14T03:00:42.745Z,10.65
2022-10-14T03:03:11.346Z,7.95
2022-10-14T03:05:38.696Z,11.48
2022-10-14T03:08:12.055Z,12.85
2022-10-14T03:10:39.670Z,9.63
2022-10-14T03:13:09.920Z,11.02
2022-10-14T03:15:42.345Z,9.70
2022-10-14T03:18:10.957Z,8.43
2022-10-14T03:20:45.118Z,10.43
2022-10-14T03:23:15.019Z,13.38
2022-10-14T03:25:46.369Z,13.60
2022-10-14T03:28:25.023Z,10.20
2022-10-14T03:31:05.791Z,11.43
2022-10-14T03:33:49.325Z,11.98
2022-10-14T03:36:18.223Z,10.88
2022-10-14T03:38:52.684Z,9.80
2022-10-14T03:41:39.735Z,12.30
2022-10-14T03:44:08.102Z,12.20
2022-10-14T03:46:37.623Z,10.35
2022-10-14T03:49:04.387Z,21.38
2022-10-14T03:51:31.490Z,10.30
2022-10-14T03:54:08.329Z,9.38
2022-10-14T03:56:35.722Z,12.73
2022-10-14T03:59:03.191Z,11.45
2022-10-14T04:01:30.022Z,13.27
2022-10-14T04:04:25.826Z,11.68
2022-10-14T04:06:52.658Z,11.93
2022-10-14T04:09:21.393Z,23.50
2022-10-14T04:11:48.537Z,19.35
2022-10-14T04:14:34.370Z,14.60
2022-10-14T04:17:01.101Z,24.13
2022-10-14T04:19:27.823Z,27.13
2022-10-14T04:21:54.638Z,23.95
2022-10-14T04:24:22.950Z,26.98
2022-10-14T04:26:56.188Z,26.73
2022-10-14T04:29:32.633Z,18.73
2022-10-14T04:32:05.922Z,12.20
2022-10-14T04:34:32.679Z,11.52
2022-10-14T04:36:59.477Z,15.95
2022-10-14T04:39:48.929Z,11.55
2022-10-14T04:42:16.659Z,11.63
2022-10-14T04:44:46.923Z,10.00
2022-10-14T04:47:15.277Z,13.95
2022-10-14T04:49:42.017Z,14.70
2022-10-14T04:52:14.851Z,13.57
2022-10-14T04:54:52.349Z,10.30
2022-10-14T04:57:29.460Z,9.18
2022-10-14T04:59:56.142Z,11.75
2022-10-14T05:02:42.788Z,12.77
2022-10-14T05:05:10.132Z,11.90
2022-10-14T05:07:39.844Z,13.10
2022-10-14T05:10:36.162Z,11.52
2022-10-14T05:13:07.431Z,11.83
2022-10-14T05:15:38.209Z,12.55
2022-10-14T05:18:12.732Z,10.25
2022-10-14T05:20:59.987Z,12.30
2022-10-14T05:23:39.041Z,12.13
2022-10-14T05:26:06.172Z,14.48
2022-10-14T05:28:34.395Z,16.67
2022-10-14T05:31:01.120Z,15.45
2022-10-14T05:33:29.778Z,25.77
2022-10-14T05:35:59.980Z,18.52
2022-10-14T05:38:33.764Z,29.58
2022-10-14T05:41:01.081Z,25.10
2022-10-14T05:43:32.415Z,24.55
2022-10-14T05:46:01.577Z,32.78
2022-10-14T05:48:32.922Z,30.38
2022-10-14T05:51:02.539Z,27.52
2022-10-14T05:53:32.553Z,25.23
2022-10-14T05:56:08.348Z,24.70
2022-10-14T05:58:37.565Z,28.20
2022-10-14T06:01:07.484Z,28.35
2022-10-14T06:03:35.011Z,24.63
2022-10-14T06:06:02.135Z,25.63
2022-10-14T06:08:30.065Z,27.08
2022-10-14T06:10:56.870Z,23.63
2022-10-14T06:13:23.719Z,27.05
2022-10-14T06:15:51.323Z,26.60
2022-10-14T06:18:18.027Z,29.13
2022-10-14T06:20:50.997Z,28.52
2022-10-14T06:23:17.746Z,25.20
2022-10-14T06:25:44.632Z,26.13
2022-10-14T06:28:11.454Z,25.27
2022-10-14T06:30:38.260Z,26.95
2022-10-14T06:33:04.907Z,26.10
2022-10-14T06:35:31.748Z,26.42
2022-10-14T06:37:58.670Z,26.30
2022-10-14T06:40:25.507Z,29.60
2022-10-14T06:42:53.700Z,30.40
2022-10-14T06:45:20.362Z,31.15
2022-10-14T06:47:47.201Z,28.42
2022-10-14T06:50:13.869Z,28.15
2022-10-14T06:52:40.571Z,29.25
2022-10-14T06:55:07.614Z,26.98
2022-10-14T06:57:34.281Z,27.25
2022-10-14T07:00:00.929Z,27.65
2022-10-14T07:02:27.899Z,28.52
2022-10-14T07:04:54.565Z,27.45
2022-10-14T07:07:21.224Z,26.80
2022-10-14T07:09:47.982Z,28.10
2022-10-14T07:12:14.947Z,30.45
2022-10-14T07:14:41.681Z,32.10
2022-10-14T07:17:09.105Z,29.48
2022-10-14T07:19:35.744Z,31.67
2022-10-14T07:22:02.414Z,35.08
2022-10-14T07:24:29.092Z,34.30
2022-10-14T07:26:55.831Z,29.83
2022-10-14T07:29:22.565Z,31.88
2022-10-14T07:31:49.349Z,31.77
2022-10-14T07:34:16.377Z,29.08
2022-10-14T07:36:43.073Z,25.85
2022-10-14T07:39:09.800Z,25.40
2022-10-14T07:41:37.219Z,29.98
2022-10-14T07:44:08.853Z,22.83
2022-10-14T07:46:38.317Z,25.00
2022-10-14T07:49:13.718Z,22.45
2022-10-14T07:51:41.436Z,19.77
2022-10-14T07:54:12.840Z,20.48
2022-10-14T07:56:41.837Z,17.27
2022-10-14T07:59:08.961Z,20.38
2022-10-14T08:01:35.861Z,20.40
2022-10-14T08:04:02.570Z,17.95
2022-10-14T08:06:29.273Z,19.95
2022-10-14T08:08:55.944Z,18.75
2022-10-14T08:11:25.481Z,17.10
2022-10-14T08:13:52.649Z,19.25
2022-10-14T08:16:25.167Z,20.27
2022-10-14T08:18:53.342Z,16.20
2022-10-14T08:21:21.572Z,20.80
2022-10-14T08:23:48.359Z,17.15
2022-10-14T08:26:19.937Z,17.05
2022-10-14T08:28:47.680Z,15.88
2022-10-14T08:31:14.729Z,15.27
2022-10-14T08:33:41.630Z,12.93
2022-10-14T08:36:09.054Z,12.73
2022-10-14T08:38:35.802Z,11.43
2022-10-14T08:41:14.866Z,11.45
2022-10-14T08:44:11.803Z,12.88
2022-10-14T08:46:44.155Z,11.63
2022-10-14T08:49:30.412Z,13.50
2022-10-14T08:52:34.997Z,15.02
2022-10-14T08:55:19.394Z,11.32
2022-10-14T08:58:00.218Z,10.98
2022-10-14T09:00:30.667Z,13.23
2022-10-14T09:02:59.792Z,14.93
2022-10-14T09:05:27.528Z,13.73
2022-10-14T09:07:56.990Z,14.23
2022-10-14T09:10:42.060Z,15.13
2022-10-14T09:13:17.135Z,12.95
2022-10-14T09:15:55.190Z,14.27
2022-10-14T09:18:40.309Z,12.57
2022-10-14T09:21:59.077Z,12.07
2022-10-14T09:24:38.117Z,14.85
2022-10-14T09:27:11.851Z,16.55
2022-10-14T09:29:53.549Z,17.50
2022-10-14T09:32:39.401Z,14.82
2022-10-14T09:35:24.049Z,13.60
2022-10-14T09:37:52.041Z,15.25
2022-10-14T09:40:46.040Z,16.52
2022-10-14T09:43:20.875Z,12.45
2022-10-14T09:45:50.670Z,15.20
2022-10-14T09:48:19.176Z,16.00
2022-10-14T09:50:52.716Z,12.30
2022-10-14T09:53:28.767Z,9.45
2022-10-14T09:55:59.063Z,9.27
2022-10-14T09:58:53.423Z,12.73
2022-10-14T10:01:24.399Z,11.15
2022-10-14T10:03:52.659Z,9.35
2022-10-14T10:06:28.526Z,8.63
2022-10-14T10:09:01.312Z,11.20
2022-10-14T10:11:31.297Z,9.30
2022-10-14T10:13:58.127Z,7.93
2022-10-14T10:16:31.424Z,8.23
2022-10-14T10:19:01.438Z,7.60
2022-10-14T10:21:30.291Z,7.18
2022-10-14T10:24:02.792Z,7.65
2022-10-14T10:26:33.306Z,8.95
2022-10-14T10:29:05.327Z,7.57
2022-10-14T10:34:28.757Z,6.57
2022-10-14T10:37:02.153Z,11.13
2022-10-14T10:39:38.540Z,9.10
2022-10-14T10:42:43.978Z,8.98
2022-10-14T10:45:36.965Z,6.82
2022-10-14T10:48:15.585Z,8.00
2022-10-14T10:50:56.141Z,5.65
2022-10-14T10:53:30.277Z,8.68
2022-10-14T10:56:07.857Z,7.82
2022-10-14T10:58:42.260Z,6.50
2022-10-14T11:01:18.256Z,8.55
2022-10-14T11:03:56.676Z,6.40
2022-10-14T11:07:04.976Z,6.55
2022-10-14T11:10:30.139Z,8.60
2022-10-14T11:13:05.556Z,6.78
2022-10-14T11:15:47.191Z,6.90
